createdAt,value
2023-03-03T00:01:30.496Z,9.98
2023-03-03T00:03:06.364Z,10.05
2023-03-03T00:04:40.513Z,9.32
2023-03-03T00:06:15.116Z,12.77
2023-03-03T00:07:47.767Z,12.15
2023-03-03T00:09:20.481Z,10.55
2023-03-03T00:10:55.416Z,12.32
2023-03-03T00:12:30.062Z,9.75
2023-03-03T00:14:02.908Z,11.10
2023-03-03T00:15:36.410Z,10.88
2023-03-03T00:17:24.279Z,9.40
2023-03-03T00:18:57.062Z,10.88
2023-03-03T00:20:36.300Z,11.55
2023-03-03T00:22:17.085Z,10.70
2023-03-03T00:23:50.512Z,10.25
2023-03-03T00:25:30.159Z,10.73
2023-03-03T00:27:16.895Z,10.07
2023-03-03T00:28:50.979Z,10.63
2023-03-03T00:30:26.049Z,13.25
2023-03-03T00:32:18.419Z,15.18
2023-03-03T00:33:54.671Z,16.10
2023-03-03T00:35:30.128Z,13.43
2023-03-03T00:37:04.387Z,14.07
2023-03-03T00:38:37.631Z,12.73
2023-03-03T00:40:25.132Z,15.05
2023-03-03T00:41:58.126Z,13.00
2023-03-03T00:43:37.150Z,13.73
2023-03-03T00:45:38.154Z,15.10
2023-03-03T00:47:31.588Z,13.40
2023-03-03T00:49:20.818Z,14.38
2023-03-03T00:50:55.318Z,15.45
2023-03-03T00:52:29.455Z,14.73
2023-03-03T00:54:02.156Z,12.10
2023-03-03T00:55:35.000Z,11.50
2023-03-03T00:57:07.687Z,10.07
2023-03-03T00:58:40.406Z,13.15
2023-03-03T01:00:13.600Z,13.15
2023-03-03T01:01:46.347Z,13.80
2023-03-03T01:03:20.560Z,12.75
2023-03-03T01:04:56.332Z,12.30
2023-03-03T01:06:29.186Z,12.05
2023-03-03T01:08:04.033Z,15.95
2023-03-03T01:09:35.759Z,13.38
2023-03-03T01:11:13.168Z,14.15
2023-03-03T01:12:46.002Z,14.35
2023-03-03T01:14:19.215Z,15.13
2023-03-03T01:15:52.484Z,14.13
2023-03-03T01:17:24.364Z,15.07
2023-03-03T01:18:57.088Z,14.05
2023-03-03T01:20:29.791Z,14.38
2023-03-03T01:22:02.889Z,13.48
2023-03-03T01:23:37.131Z,14.25
2023-03-03T01:25:10.852Z,14.15
2023-03-03T01:26:43.628Z,13.15
2023-03-03T01:28:16.406Z,13.20
2023-03-03T01:29:48.187Z,12.15
2023-03-03T01:31:21.009Z,13.05
2023-03-03T01:32:53.958Z,14.10
2023-03-03T01:34:25.843Z,14.77
2023-03-03T01:35:58.698Z,16.52
2023-03-03T01:37:31.461Z,15.20
2023-03-03T01:39:05.630Z,16.02
2023-03-03T01:40:38.915Z,17.15
2023-03-03T01:42:10.641Z,16.13
2023-03-03T01:43:46.244Z,17.33
2023-03-03T01:45:24.536Z,14.93
2023-03-03T01:47:00.619Z,16.23
2023-03-03T01:48:38.243Z,17.42
2023-03-03T01:50:14.012Z,15.63
2023-03-03T01:51:53.583Z,13.82
2023-03-03T01:53:33.390Z,15.70
2023-03-03T01:55:12.984Z,14.95
2023-03-03T01:56:45.754Z,17.15
2023-03-03T01:58:22.388Z,16.35
2023-03-03T01:59:56.401Z,17.50
2023-03-03T02:01:31.423Z,16.67
2023-03-03T02:03:04.496Z,18.33
2023-03-03T02:04:37.357Z,19.85
2023-03-03T02:06:15.405Z,15.88
2023-03-03T02:07:48.387Z,16.80
2023-03-03T02:09:27.472Z,17.52
2023-03-03T02:11:02.060Z,15.73
2023-03-03T02:12:38.654Z,17.55
2023-03-03T02:14:12.467Z,15.15
2023-03-03T02:15:45.302Z,14.38
2023-03-03T02:17:17.227Z,16.35
2023-03-03T02:18:50.287Z,14.15
2023-03-03T02:20:45.577Z,16.77
2023-03-03T02:22:22.772Z,17.08
2023-03-03T02:24:01.366Z,18.52
2023-03-03T02:25:41.506Z,18.63
2023-03-03T02:27:15.632Z,18.77
2023-03-03T02:28:48.354Z,19.13
2023-03-03T02:30:24.092Z,19.75
2023-03-03T02:31:56.908Z,16.88
2023-03-03T02:33:30.232Z,16.65
2023-03-03T02:35:02.018Z,16.08
2023-03-03T02:36:36.638Z,19.75
2023-03-03T02:38:17.125Z,21.38
2023-03-03T02:39:49.816Z,20.08
2023-03-03T02:41:32.569Z,20.55
2023-03-03T02:43:07.946Z,21.77
2023-03-03T02:44:40.684Z,21.77
2023-03-03T02:46:13.483Z,21.10
2023-03-03T02:47:49.881Z,22.20
2023-03-03T02:49:24.914Z,19.15
2023-03-03T02:50:56.723Z,20.20
2023-03-03T02:52:29.417Z,20.15
2023-03-03T02:54:02.360Z,18.27
2023-03-03T02:55:35.076Z,15.75
2023-03-03T02:57:08.975Z,22.15
2023-03-03T02:58:42.179Z,17.42
2023-03-03T03:00:15.552Z,17.17
2023-03-03T03:01:49.240Z,20.10
2023-03-03T03:03:21.088Z,23.17
2023-03-03T03:04:53.859Z,24.95
2023-03-03T03:06:26.814Z,22.88
2023-03-03T03:07:59.512Z,22.08
2023-03-03T03:09:32.202Z,20.17
2023-03-03T03:11:06.088Z,17.55
2023-03-03T03:12:38.801Z,20.98
2023-03-03T03:14:14.165Z,19.90
2023-03-03T03:15:46.455Z,18.50
2023-03-03T03:17:19.176Z,19.17
2023-03-03T03:18:52.425Z,20.35
2023-03-03T03:20:25.156Z,22.70
2023-03-03T03:21:57.886Z,19.33
2023-03-03T03:23:30.575Z,20.35
2023-03-03T03:25:03.309Z,22.08
2023-03-03T03:26:36.010Z,22.50
2023-03-03T03:28:07.830Z,20.00
2023-03-03T03:29:42.042Z,22.73
2023-03-03T03:31:15.412Z,20.80
2023-03-03T03:32:47.191Z,20.33
2023-03-03T03:34:19.868Z,23.02
2023-03-03T03:35:52.635Z,21.25
2023-03-03T03:37:25.359Z,21.90
2023-03-03T03:38:58.075Z,20.55
2023-03-03T03:40:31.044Z,24.08
2023-03-03T03:42:03.784Z,21.98
2023-03-03T03:43:35.947Z,18.98
2023-03-03T03:45:15.216Z,17.17
2023-03-03T03:46:47.967Z,19.50
2023-03-03T03:48:20.041Z,19.48
2023-03-03T03:49:52.739Z,19.08
2023-03-03T03:51:25.463Z,16.65
2023-03-03T03:52:58.149Z,18.85
2023-03-03T03:54:30.946Z,19.42
2023-03-03T03:56:03.679Z,17.85
2023-03-03T03:57:35.458Z,21.38
2023-03-03T03:59:08.314Z,21.10
2023-03-03T04:00:42.111Z,22.35
2023-03-03T04:02:14.952Z,19.67
2023-03-03T04:03:48.985Z,19.50
2023-03-03T04:05:21.764Z,19.48
2023-03-03T04:06:54.611Z,18.77
2023-03-03T04:08:26.477Z,19.90
2023-03-03T04:09:59.159Z,20.27
2023-03-03T04:11:31.246Z,19.27
2023-03-03T04:13:04.067Z,19.83
2023-03-03T04:14:36.786Z,19.02
2023-03-03T04:16:10.976Z,17.20
2023-03-03T04:17:42.912Z,20.70
2023-03-03T04:19:15.677Z,19.83
2023-03-03T04:20:48.542Z,17.42
2023-03-03T04:22:21.723Z,18.13
2023-03-03T04:23:53.476Z,19.65
2023-03-03T04:25:26.569Z,21.00
2023-03-03T04:26:59.246Z,20.00
2023-03-03T04:28:32.017Z,23.92
2023-03-03T04:30:06.460Z,21.38
2023-03-03T04:31:40.616Z,19.77
2023-03-03T04:33:13.292Z,19.98
2023-03-03T04:34:48.894Z,18.42
2023-03-03T04:36:23.901Z,17.65
2023-03-03T04:37:56.588Z,17.60
2023-03-03T04:39:28.538Z,19.13
2023-03-03T04:41:01.255Z,19.13
2023-03-03T04:42:34.382Z,16.83
2023-03-03T04:44:07.279Z,19.08
2023-03-03T04:45:39.131Z,15.05
2023-03-03T04:47:13.208Z,15.88
2023-03-03T04:48:44.969Z,17.92
2023-03-03T04:50:17.838Z,19.08
2023-03-03T04:51:50.572Z,17.45
2023-03-03T04:53:23.258Z,19.27
2023-03-03T04:54:55.094Z,20.90
2023-03-03T04:56:28.458Z,20.25
2023-03-03T04:58:01.171Z,14.27
2023-03-03T04:59:33.913Z,20.23
2023-03-03T05:01:06.849Z,14.65
2023-03-03T05:02:41.254Z,15.70
2023-03-03T05:04:14.064Z,16.15
2023-03-03T05:05:47.882Z,19.80
2023-03-03T05:07:20.799Z,16.88
2023-03-03T05:08:53.496Z,17.10
2023-03-03T05:10:26.202Z,17.27
2023-03-03T05:11:57.984Z,15.57
2023-03-03T05:13:31.583Z,16.35
2023-03-03T05:15:04.681Z,18.15
2023-03-03T05:16:37.352Z,16.33
2023-03-03T05:18:12.329Z,17.83
2023-03-03T05:19:45.012Z,21.65
2023-03-03T05:21:17.727Z,21.13
2023-03-03T05:22:50.397Z,21.23
2023-03-03T05:24:23.843Z,21.95
2023-03-03T05:25:56.753Z,21.75
2023-03-03T05:27:29.461Z,22.20
2023-03-03T05:29:02.140Z,20.63
2023-03-03T05:30:35.014Z,21.75
2023-03-03T05:32:07.965Z,22.73
2023-03-03T05:33:42.047Z,24.45
2023-03-03T05:35:14.741Z,24.38
2023-03-03T05:36:47.488Z,23.63
2023-03-03T05:38:20.176Z,26.73
2023-03-03T05:39:52.886Z,27.40
2023-03-03T05:41:25.749Z,30.13
2023-03-03T05:42:58.459Z,28.98
2023-03-03T05:44:31.182Z,26.63
2023-03-03T05:46:04.114Z,26.95
2023-03-03T05:47:35.957Z,28.80
2023-03-03T05:49:10.216Z,28.00
2023-03-03T05:50:42.952Z,30.48
2023-03-03T05:52:15.660Z,29.05
2023-03-03T05:53:48.425Z,28.35
2023-03-03T05:55:21.304Z,24.95
2023-03-03T05:56:54.140Z,27.05
2023-03-03T05:58:26.944Z,26.92
2023-03-03T05:59:59.851Z,28.33
2023-03-03T06:01:32.822Z,24.92
2023-03-03T06:03:05.576Z,27.75
2023-03-03T06:04:39.869Z,30.52
2023-03-03T06:06:14.092Z,32.40
2023-03-03T06:07:46.846Z,29.27
2023-03-03T06:09:20.416Z,30.50
2023-03-03T06:10:53.121Z,30.23
2023-03-03T06:12:25.949Z,31.70
2023-03-03T06:13:58.717Z,32.10
2023-03-03T06:15:31.517Z,32.15
2023-03-03T06:17:04.251Z,35.20
2023-03-03T06:18:36.977Z,35.70
2023-03-03T06:20:12.512Z,36.30
2023-03-03T06:21:45.233Z,35.35
2023-03-03T06:23:18.784Z,34.45
2023-03-03T06:24:52.491Z,27.60
2023-03-03T06:26:25.220Z,29.38
2023-03-03T06:27:57.995Z,26.25
2023-03-03T06:29:30.731Z,29.65
2023-03-03T06:31:02.877Z,24.10
2023-03-03T06:32:35.681Z,24.23
2023-03-03T06:34:08.405Z,29.88
2023-03-03T06:35:42.521Z,38.88
2023-03-03T06:37:15.288Z,43.30
2023-03-03T06:38:48.059Z,47.03
2023-03-03T06:40:20.932Z,46.00
2023-03-03T06:41:53.643Z,43.97
2023-03-03T06:43:26.360Z,49.33
2023-03-03T06:44:59.060Z,51.88
2023-03-03T06:46:30.851Z,48.63
2023-03-03T06:48:03.949Z,49.45
2023-03-03T06:49:36.964Z,50.70
2023-03-03T06:51:23.354Z,46.88
2023-03-03T06:53:03.002Z,48.42
2023-03-03T06:54:35.742Z,52.38
2023-03-03T06:56:10.286Z,53.47
2023-03-03T06:57:42.990Z,52.97
2023-03-03T06:59:18.437Z,53.03
2023-03-03T07:00:55.550Z,55.38
2023-03-03T07:02:28.409Z,59.05
2023-03-03T07:04:01.346Z,53.72
2023-03-03T07:05:34.522Z,51.05
2023-03-03T07:07:16.232Z,52.50
2023-03-03T07:08:49.369Z,54.05
2023-03-03T07:10:25.086Z,55.42
2023-03-03T07:12:03.591Z,57.13
2023-03-03T07:13:39.814Z,56.88
2023-03-03T07:15:17.503Z,62.38
2023-03-03T07:16:57.560Z,58.42
2023-03-03T07:18:37.935Z,56.85
2023-03-03T07:20:19.649Z,57.13
2023-03-03T07:21:53.546Z,57.45
2023-03-03T07:23:31.181Z,61.42
2023-03-03T07:25:19.152Z,63.00
2023-03-03T07:26:52.559Z,62.03
2023-03-03T07:28:26.563Z,60.35
2023-03-03T07:30:18.492Z,61.35
2023-03-03T07:31:51.867Z,56.13
2023-03-03T07:33:27.448Z,61.40
2023-03-03T07:35:00.171Z,57.83
2023-03-03T07:36:37.179Z,52.50
2023-03-03T07:38:24.115Z,54.50
2023-03-03T07:39:59.048Z,54.53
2023-03-03T07:41:35.578Z,51.28
2023-03-03T07:43:30.363Z,53.33
2023-03-03T07:45:04.251Z,50.20
2023-03-03T07:46:42.618Z,51.50
2023-03-03T07:48:24.783Z,45.90
2023-03-03T07:50:01.094Z,46.40
2023-03-03T07:51:41.908Z,49.60
2023-03-03T07:53:24.739Z,51.10
2023-03-03T07:55:01.791Z,49.50
2023-03-03T07:56:36.874Z,52.22
2023-03-03T07:58:23.105Z,50.90
2023-03-03T08:00:01.085Z,48.15
2023-03-03T08:01:42.589Z,47.13
2023-03-03T08:03:18.705Z,46.22
2023-03-03T08:04:52.722Z,48.78
2023-03-03T08:06:40.155Z,45.50
2023-03-03T08:08:22.734Z,49.42
2023-03-03T08:10:00.730Z,45.92
2023-03-03T08:11:33.454Z,45.05
2023-03-03T08:13:18.076Z,47.60
2023-03-03T08:14:53.450Z,46.38
2023-03-03T08:16:38.613Z,47.42
2023-03-03T08:18:22.556Z,43.78
2023-03-03T08:19:56.960Z,44.67
2023-03-03T08:21:31.822Z,43.42
2023-03-03T08:23:04.581Z,43.58
2023-03-03T08:24:38.584Z,45.22
2023-03-03T08:26:13.956Z,45.38
2023-03-03T08:27:46.662Z,43.53
2023-03-03T08:29:19.351Z,45.35
2023-03-03T08:31:02.708Z,45.25
2023-03-03T08:32:41.852Z,47.38
2023-03-03T08:34:14.659Z,48.80
2023-03-03T08:35:48.208Z,44.33
2023-03-03T08:37:20.958Z,48.80
2023-03-03T08:38:53.656Z,46.80
2023-03-03T08:40:26.395Z,43.85
2023-03-03T08:42:00.420Z,42.95
2023-03-03T08:43:33.192Z,44.58
2023-03-03T08:45:06.559Z,42.40
2023-03-03T08:46:39.311Z,41.97
2023-03-03T08:48:12.828Z,41.72
2023-03-03T08:49:45.550Z,47.80
2023-03-03T08:51:18.367Z,41.95
2023-03-03T08:52:51.435Z,42.90
2023-03-03T08:54:24.160Z,42.17
2023-03-03T08:55:57.199Z,41.58
2023-03-03T08:57:31.343Z,43.72
2023-03-03T08:59:04.361Z,40.55
2023-03-03T09:00:38.276Z,38.28
2023-03-03T09:02:11.046Z,41.28
2023-03-03T09:03:43.918Z,42.47
2023-03-03T09:05:17.260Z,37.58
2023-03-03T09:06:49.969Z,41.78
2023-03-03T09:08:22.664Z,48.70
2023-03-03T09:09:55.368Z,41.20
2023-03-03T09:11:30.454Z,37.75
2023-03-03T09:13:11.636Z,39.88
2023-03-03T09:14:45.077Z,39.63
2023-03-03T09:16:17.793Z,38.80
2023-03-03T09:17:51.302Z,40.10
2023-03-03T09:19:27.392Z,41.70
2023-03-03T09:21:00.122Z,40.92
2023-03-03T09:22:38.784Z,39.60
2023-03-03T09:24:23.882Z,42.67
2023-03-03T09:25:57.028Z,38.00
2023-03-03T09:27:32.002Z,41.53
2023-03-03T09:29:24.667Z,40.92
2023-03-03T09:30:59.419Z,39.70
2023-03-03T09:32:35.715Z,38.85
2023-03-03T09:34:21.031Z,41.92
2023-03-03T09:35:59.236Z,41.75
2023-03-03T09:37:37.391Z,40.15
2023-03-03T09:39:18.196Z,50.05
2023-03-03T09:41:13.933Z,45.38
2023-03-03T09:43:03.998Z,45.40
2023-03-03T09:45:10.757Z,41.55
2023-03-03T09:46:56.637Z,43.38
2023-03-03T09:48:51.194Z,47.50
2023-03-03T09:50:35.198Z,53.35
2023-03-03T09:52:26.509Z,43.35
2023-03-03T09:54:14.830Z,49.97
2023-03-03T09:55:55.129Z,44.33
2023-03-03T09:57:41.148Z,47.92
2023-03-03T09:59:28.525Z,39.67
2023-03-03T10:01:14.045Z,43.25
2023-03-03T10:03:01.369Z,40.73
2023-03-03T10:04:49.018Z,43.38
2023-03-03T10:06:28.007Z,40.40
2023-03-03T10:08:22.737Z,40.55
2023-03-03T10:10:18.727Z,41.57
2023-03-03T10:11:59.625Z,43.42
2023-03-03T10:13:58.510Z,37.10
2023-03-03T10:15:42.939Z,36.70
2023-03-03T10:17:27.179Z,36.17
2023-03-03T10:19:04.135Z,37.87
2023-03-03T10:20:51.284Z,39.40
2023-03-03T10:22:33.845Z,41.20
2023-03-03T10:24:22.074Z,39.47
2023-03-03T10:26:05.044Z,39.53
2023-03-03T10:27:49.662Z,37.63
2023-03-03T10:29:33.975Z,41.00
2023-03-03T10:31:19.939Z,40.03
2023-03-03T10:32:59.119Z,38.97
2023-03-03T10:34:51.218Z,36.63
2023-03-03T10:36:50.392Z,38.97
2023-03-03T10:38:50.049Z,39.03
2023-03-03T10:40:28.289Z,42.70
2023-03-03T10:42:20.886Z,40.07
2023-03-03T10:44:06.827Z,37.50
2023-03-03T10:45:57.060Z,38.90
2023-03-03T10:47:47.640Z,38.00
2023-03-03T10:49:31.844Z,44.03
2023-03-03T10:51:17.230Z,40.60
2023-03-03T10:52:54.969Z,37.83
2023-03-03T10:54:49.374Z,36.03
2023-03-03T10:56:50.309Z,36.77
2023-03-03T10:58:39.781Z,37.00
2023-03-03T11:00:22.631Z,36.50
2023-03-03T11:01:59.854Z,38.13
2023-03-03T11:03:58.283Z,40.10
2023-03-03T11:05:40.975Z,40.37
2023-03-03T11:07:21.506Z,36.87
2023-03-03T11:09:00.075Z,41.40
2023-03-03T11:10:48.839Z,39.57
2023-03-03T11:12:30.253Z,40.57
2023-03-03T11:14:10.560Z,40.13
2023-03-03T11:15:53.998Z,37.33
2023-03-03T11:17:37.201Z,36.60
2023-03-03T11:19:26.319Z,38.50
2023-03-03T11:21:08.353Z,38.73
2023-03-03T11:22:48.187Z,36.93
2023-03-03T11:24:36.608Z,37.50
2023-03-03T11:26:13.542Z,36.47
2023-03-03T11:28:06.196Z,37.17
2023-03-03T11:29:53.398Z,36.97
2023-03-03T11:31:32.141Z,35.87
2023-03-03T11:33:10.784Z,36.50
2023-03-03T11:35:06.865Z,38.33
2023-03-03T11:36:47.045Z,35.97
2023-03-03T11:38:31.284Z,38.60
2023-03-03T11:40:13.131Z,39.07
2023-03-03T11:42:00.866Z,38.77
2023-03-03T11:43:38.070Z,38.70
2023-03-03T11:45:18.847Z,37.67
2023-03-03T11:46:57.279Z,36.73
2023-03-03T11:48:37.815Z,37.47
2023-03-03T11:50:19.121Z,37.30
2023-03-03T11:52:03.457Z,36.90
2023-03-03T11:53:51.180Z,32.00
2023-03-03T11:55:28.476Z,35.53
2023-03-03T11:57:13.187Z,35.63
2023-03-03T11:58:50.775Z,34.23
2023-03-03T12:00:29.733Z,35.90
2023-03-03T12:02:08.082Z,37.03
2023-03-03T12:03:46.063Z,33.10
2023-03-03T12:05:34.332Z,34.90
2023-03-03T12:07:23.464Z,33.83
2023-03-03T12:09:10.414Z,32.33
2023-03-03T12:10:50.154Z,39.03
2023-03-03T12:12:25.152Z,36.80
2023-03-03T12:14:02.769Z,34.73
2023-03-03T12:15:43.171Z,35.87
2023-03-03T12:17:31.073Z,34.03
2023-03-03T12:19:28.118Z,33.87
2023-03-03T12:21:15.028Z,35.00
2023-03-03T12:23:06.458Z,33.40
2023-03-03T12:25:10.539Z,34.27
2023-03-03T12:26:50.450Z,34.87
2023-03-03T12:28:27.192Z,33.40
2023-03-03T12:30:13.275Z,34.70
2023-03-03T12:31:53.698Z,33.77
2023-03-03T12:33:37.662Z,29.90
2023-03-03T12:35:17.238Z,33.27
2023-03-03T12:37:07.126Z,29.23
2023-03-03T12:38:49.307Z,31.67
2023-03-03T12:40:27.500Z,30.67
2023-03-03T12:42:07.786Z,30.97
2023-03-03T12:44:01.935Z,30.90
2023-03-03T12:45:45.087Z,32.33
2023-03-03T12:47:26.105Z,31.13
2023-03-03T12:48:58.955Z,33.03
2023-03-03T12:50:43.065Z,30.13
2023-03-03T12:52:28.650Z,28.93
2023-03-03T12:54:37.392Z,29.43
2023-03-03T12:56:13.165Z,32.97
2023-03-03T12:57:54.540Z,32.20
2023-03-03T12:59:37.657Z,31.50
2023-03-03T13:01:22.506Z,29.63
2023-03-03T13:03:06.620Z,29.13
2023-03-03T13:04:46.733Z,30.07
2023-03-03T13:06:28.780Z,28.07
2023-03-03T13:08:20.875Z,33.97
2023-03-03T13:10:10.594Z,31.93
2023-03-03T13:12:08.893Z,29.50
2023-03-03T13:13:50.291Z,30.03
2023-03-03T13:15:32.264Z,26.30
2023-03-03T13:17:18.474Z,29.07
2023-03-03T13:18:56.742Z,27.87
2023-03-03T13:20:41.581Z,29.27
2023-03-03T13:22:19.145Z,29.40
2023-03-03T13:23:59.413Z,28.00
2023-03-03T13:25:51.519Z,26.90
2023-03-03T13:27:28.729Z,27.50
2023-03-03T13:29:10.254Z,26.73
2023-03-03T13:30:49.800Z,24.00
2023-03-03T13:32:24.972Z,26.67
2023-03-03T13:34:00.458Z,24.63
2023-03-03T13:35:41.000Z,25.40
2023-03-03T13:37:20.769Z,27.47
2023-03-03T13:38:58.460Z,26.03
2023-03-03T13:40:41.681Z,24.77
2023-03-03T13:42:24.689Z,24.17
2023-03-03T13:44:02.968Z,25.87
2023-03-03T13:45:43.507Z,23.13
2023-03-03T13:47:24.023Z,25.30
2023-03-03T13:49:14.281Z,23.80
2023-03-03T13:50:52.019Z,23.47
2023-03-03T13:52:29.012Z,24.73
2023-03-03T13:54:13.442Z,25.65
2023-03-03T13:55:51.748Z,24.43
2023-03-03T13:57:45.646Z,25.42
2023-03-03T13:59:29.731Z,26.53
2023-03-03T14:01:07.401Z,23.57
2023-03-03T14:03:00.318Z,26.00
2023-03-03T14:04:48.198Z,22.60
2023-03-03T14:06:23.935Z,27.23
2023-03-03T14:08:00.596Z,24.63
2023-03-03T14:09:49.379Z,25.27
2023-03-03T14:11:26.106Z,22.53
2023-03-03T14:13:05.731Z,23.03
2023-03-03T14:14:48.360Z,22.57
2023-03-03T14:16:40.330Z,26.07
2023-03-03T14:18:24.930Z,23.47
2023-03-03T14:20:12.823Z,24.33
2023-03-03T14:21:56.835Z,24.90
2023-03-03T14:23:40.097Z,25.57
2023-03-03T14:25:14.761Z,25.30
2023-03-03T14:26:49.675Z,21.70
2023-03-03T14:28:25.295Z,20.23
2023-03-03T14:29:58.151Z,23.05
2023-03-03T14:31:40.670Z,25.52
2023-03-03T14:33:21.020Z,27.17
2023-03-03T14:35:02.692Z,23.63
2023-03-03T14:36:40.041Z,23.95
2023-03-03T14:38:15.272Z,25.40
2023-03-03T14:39:51.912Z,24.42
2023-03-03T14:41:37.490Z,22.88
2023-03-03T14:43:24.794Z,20.77
2023-03-03T14:44:59.290Z,21.77
2023-03-03T14:46:40.492Z,21.30
2023-03-03T14:48:18.286Z,20.70
2023-03-03T14:49:51.885Z,23.03
2023-03-03T14:51:29.044Z,22.63
2023-03-03T14:53:16.849Z,21.03
2023-03-03T14:54:51.469Z,19.95
2023-03-03T14:56:25.819Z,21.42
2023-03-03T14:58:00.298Z,22.47
2023-03-03T14:59:34.888Z,21.73
2023-03-03T15:01:15.896Z,19.65
2023-03-03T15:03:03.196Z,22.10
2023-03-03T15:04:36.092Z,21.60
2023-03-03T15:06:13.757Z,21.17
2023-03-03T15:07:48.928Z,20.30
2023-03-03T15:09:45.644Z,19.23
2023-03-03T15:11:28.187Z,20.23
2023-03-03T15:13:29.313Z,20.38
2023-03-03T15:15:18.339Z,19.50
2023-03-03T15:16:51.216Z,19.23
2023-03-03T15:18:24.159Z,16.77
2023-03-03T15:20:25.859Z,17.30
2023-03-03T15:22:05.608Z,16.83
2023-03-03T15:23:55.349Z,18.58
2023-03-03T15:25:43.310Z,16.30
2023-03-03T15:27:22.250Z,15.82
2023-03-03T15:29:05.078Z,17.27
2023-03-03T15:30:49.217Z,15.23
2023-03-03T15:32:30.742Z,16.95
2023-03-03T15:34:19.885Z,13.23
2023-03-03T15:35:58.977Z,15.17
2023-03-03T15:37:47.181Z,13.43
2023-03-03T15:39:36.212Z,13.13
2023-03-03T15:41:20.369Z,15.70
2023-03-03T15:42:59.191Z,13.85
2023-03-03T15:44:40.658Z,15.45
2023-03-03T15:46:26.681Z,14.60
2023-03-03T15:48:25.696Z,12.03
2023-03-03T15:50:19.198Z,11.73
2023-03-03T15:52:12.763Z,15.48
2023-03-03T15:54:19.812Z,11.77
2023-03-03T15:56:05.093Z,9.73
2023-03-03T15:57:47.811Z,10.70
2023-03-03T15:59:43.617Z,11.85
2023-03-03T16:01:25.800Z,10.40
2023-03-03T16:03:03.250Z,8.93
2023-03-03T16:04:39.010Z,9.70
2023-03-03T16:06:18.049Z,10.15
2023-03-03T16:08:01.719Z,8.80
2023-03-03T16:09:51.953Z,8.95
2023-03-03T16:11:31.872Z,9.35
2023-03-03T16:13:22.696Z,11.82
2023-03-03T16:15:12.297Z,8.63
2023-03-03T16:16:50.771Z,9.23
2023-03-03T16:18:34.296Z,8.85
2023-03-03T16:20:20.593Z,12.30
2023-03-03T16:22:12.149Z,8.82
2023-03-03T16:23:48.310Z,7.93
2023-03-03T16:25:32.516Z,7.80
2023-03-03T16:27:09.586Z,7.57
2023-03-03T16:29:01.125Z,6.28
2023-03-03T16:30:40.904Z,6.80
2023-03-03T16:32:22.616Z,7.32
2023-03-03T16:34:02.438Z,6.97
2023-03-03T16:35:39.818Z,7.68
2023-03-03T16:37:19.291Z,9.90
2023-03-03T16:38:58.296Z,10.38
2023-03-03T16:40:35.503Z,7.88
2023-03-03T16:42:21.292Z,6.90
2023-03-03T16:44:05.472Z,7.30
2023-03-03T16:45:39.993Z,7.00
2023-03-03T16:47:28.281Z,6.63
2023-03-03T16:49:09.453Z,6.90
2023-03-03T16:50:49.409Z,7.07
2023-03-03T16:52:29.487Z,5.82
2023-03-03T16:54:09.994Z,7.32
2023-03-03T16:55:56.761Z,6.85
2023-03-03T16:57:40.731Z,9.20
2023-03-03T16:59:37.140Z,13.35
2023-03-03T17:01:20.586Z,16.73
2023-03-03T17:03:21.031Z,15.98
2023-03-03T17:04:59.118Z,18.17
2023-03-03T17:06:41.945Z,14.75
2023-03-03T17:08:30.511Z,19.38
2023-03-03T17:10:25.839Z,18.52
2023-03-03T17:12:09.061Z,17.30
2023-03-03T17:13:56.849Z,19.90
2023-03-03T17:15:45.651Z,19.40
2023-03-03T17:17:32.152Z,23.67
2023-03-03T17:19:20.384Z,20.67
2023-03-03T17:20:58.063Z,20.65
2023-03-03T17:22:43.565Z,27.88
2023-03-03T17:24:24.406Z,24.52
2023-03-03T17:26:10.039Z,27.60
2023-03-03T17:27:59.642Z,25.38
2023-03-03T17:30:00.966Z,25.50
2023-03-03T17:31:41.843Z,27.92
2023-03-03T17:33:35.674Z,26.08
2023-03-03T17:35:28.474Z,30.67
2023-03-03T17:37:16.473Z,28.23
2023-03-03T17:39:03.206Z,31.58
2023-03-03T17:40:50.789Z,28.55
2023-03-03T17:42:32.703Z,25.90
2023-03-03T17:44:13.447Z,25.90
2023-03-03T17:45:49.027Z,27.75
2023-03-03T17:47:35.053Z,24.40
2023-03-03T17:49:37.600Z,27.33
2023-03-03T17:51:37.188Z,24.95
2023-03-03T17:53:39.650Z,25.73
2023-03-03T17:55:34.923Z,21.30
2023-03-03T17:57:22.922Z,22.42
2023-03-03T17:59:17.884Z,22.83
2023-03-03T18:01:02.047Z,22.35
2023-03-03T18:02:59.740Z,21.42
2023-03-03T18:04:47.203Z,21.95
2023-03-03T18:06:41.981Z,30.80
2023-03-03T18:08:36.404Z,32.53
2023-03-03T18:10:32.382Z,26.02
2023-03-03T18:12:22.553Z,20.38
2023-03-03T18:14:22.363Z,20.65
2023-03-03T18:16:12.185Z,23.25
2023-03-03T18:17:54.516Z,26.52
2023-03-03T18:19:49.129Z,28.63
2023-03-03T18:21:25.490Z,28.42
2023-03-03T18:23:35.163Z,24.25
2023-03-03T18:25:11.949Z,27.98
2023-03-03T18:26:45.012Z,26.83
2023-03-03T18:28:22.713Z,25.13
2023-03-03T18:30:27.237Z,27.05
2023-03-03T18:32:18.949Z,27.40
2023-03-03T18:34:03.344Z,31.20
2023-03-03T18:35:38.290Z,27.83
2023-03-03T18:37:32.419Z,27.00
2023-03-03T18:39:07.322Z,25.60
2023-03-03T18:40:51.099Z,25.70
2023-03-03T18:42:39.627Z,26.08
2023-03-03T18:44:26.528Z,25.23
2023-03-03T18:45:59.374Z,25.92
2023-03-03T18:48:06.498Z,27.63
2023-03-03T18:50:04.146Z,25.27
2023-03-03T18:52:13.157Z,30.50
2023-03-03T18:54:02.472Z,28.38
2023-03-03T18:55:43.722Z,28.35
2023-03-03T18:57:19.373Z,29.85
2023-03-03T18:58:52.525Z,27.67
2023-03-03T19:00:29.476Z,26.00
2023-03-03T19:02:19.079Z,27.02
2023-03-03T19:04:19.145Z,25.85
2023-03-03T19:05:54.041Z,28.55
2023-03-03T19:07:29.592Z,29.48
2023-03-03T19:09:02.556Z,29.45
2023-03-03T19:10:53.123Z,31.38
2023-03-03T19:12:51.551Z,30.63
2023-03-03T19:14:37.613Z,29.73
2023-03-03T19:16:12.297Z,31.88
2023-03-03T19:17:50.581Z,31.42
2023-03-03T19:19:26.482Z,29.83
2023-03-03T19:21:02.023Z,33.17
2023-03-03T19:22:45.690Z,33.35
2023-03-03T19:24:33.577Z,31.65
2023-03-03T19:26:40.033Z,37.50
2023-03-03T19:28:33.539Z,32.78
2023-03-03T19:30:15.227Z,39.22
2023-03-03T19:31:54.207Z,37.45
2023-03-03T19:33:46.790Z,37.42
2023-03-03T19:35:29.515Z,39.78
2023-03-03T19:37:09.064Z,35.08
2023-03-03T19:38:51.346Z,36.65
2023-03-03T19:40:30.838Z,40.08
2023-03-03T19:42:13.219Z,41.65
2023-03-03T19:44:01.741Z,40.53
2023-03-03T19:45:50.051Z,40.88
2023-03-03T19:47:33.739Z,40.03
2023-03-03T19:49:19.438Z,40.60
2023-03-03T19:51:00.858Z,41.00
2023-03-03T19:52:39.238Z,41.90
2023-03-03T19:54:21.369Z,42.58
2023-03-03T19:56:11.012Z,42.75
2023-03-03T19:57:54.381Z,41.30
2023-03-03T19:59:37.502Z,38.85
2023-03-03T20:01:19.031Z,36.53
2023-03-03T20:03:12.172Z,39.05
2023-03-03T20:04:58.457Z,39.63
2023-03-03T20:06:43.125Z,38.33
2023-03-03T20:08:23.516Z,39.00
2023-03-03T20:10:05.333Z,38.20
2023-03-03T20:11:59.076Z,42.25
2023-03-03T20:13:44.381Z,40.67
2023-03-03T20:15:21.778Z,41.65
2023-03-03T20:16:58.188Z,40.30
2023-03-03T20:18:49.951Z,40.58
2023-03-03T20:20:50.553Z,43.85
2023-03-03T20:22:32.479Z,39.53
2023-03-03T20:24:28.152Z,38.65
2023-03-03T20:26:08.650Z,41.22
2023-03-03T20:27:51.331Z,44.97
2023-03-03T20:29:48.466Z,42.47
2023-03-03T20:31:28.812Z,47.83
2023-03-03T20:33:14.638Z,51.40
2023-03-03T20:34:56.718Z,57.13
2023-03-03T20:36:37.231Z,56.67
2023-03-03T20:38:22.032Z,60.30
2023-03-03T20:40:08.862Z,60.90
2023-03-03T20:41:58.628Z,48.08
2023-03-03T20:43:43.449Z,46.90
2023-03-03T20:45:28.102Z,44.22
2023-03-03T20:47:12.700Z,46.58
2023-03-03T20:49:10.693Z,44.20
2023-03-03T20:50:52.307Z,46.40
2023-03-03T20:52:36.295Z,47.97
2023-03-03T20:54:18.470Z,45.00
2023-03-03T20:56:01.155Z,46.50
2023-03-03T20:57:42.067Z,43.92
2023-03-03T20:59:23.082Z,44.35
2023-03-03T21:01:04.189Z,48.45
2023-03-03T21:02:44.719Z,45.80
2023-03-03T21:04:22.477Z,48.13
2023-03-03T21:05:58.588Z,47.90
2023-03-03T21:07:31.406Z,44.97
2023-03-03T21:09:04.272Z,50.05
2023-03-03T21:10:40.792Z,49.88
2023-03-03T21:12:29.777Z,47.88
2023-03-03T21:14:17.382Z,52.92
2023-03-03T21:15:55.948Z,54.78
2023-03-03T21:17:30.402Z,55.38
2023-03-03T21:19:06.365Z,55.65
2023-03-03T21:20:39.410Z,52.95
2023-03-03T21:22:12.164Z,53.78
2023-03-03T21:23:45.040Z,48.78
2023-03-03T21:25:45.472Z,52.97
2023-03-03T21:27:29.335Z,50.63
2023-03-03T21:29:03.669Z,50.58
2023-03-03T21:30:56.476Z,52.53